Aeroporto :
LOGIN :

Iscrizione | Disclaimer

   EN    FR    IT 

 










Sommario :    VFR   VFR Marginale   IFR   IFR Intensivo   IFR Molto Intensivo
Visibilità : 
Base nubi : 
>= 8 km
>= 3000ft
5 / 8 km
1000 / 3000 ft
1500m / 5 km
500 / 1000 ft
800 / 1500m
200 / 500 ft
< 800m
< 200 ft
Simboli :   Temporali  Nebbia  Neve Forte  Precipitazioni Forti  Vento > 20 kt
SIGMETs :   Varie  Temporali  Ghiacco  Turbolenza  Onda orograficha  Ceneri Vulcaniche






- Altitudine del aeroporto : 327 ft
- Codice IATA : BHX


EGBB - Birmingham

ULTIMO METAR :
  • 040750Z 03006KT 360V070 9999 VCSH SCT006 BKN011 04/03 Q1017

METARs OBSOLETI :
  • 040720Z 03007KT 9999 -RA BKN009 04/03 Q1017
  • 040650Z 02006KT 9999 BKN007 OVC038 04/03 Q1017
  • 040620Z 01007KT 9999 SCT006 BKN035 04/03 Q1017
  • 040550Z 01007KT 9000 FEW005 BKN037 04/03 Q1017
  • 040520Z 02007KT 9000 FEW004 BKN034 03/03 Q1017
  • 040450Z 02006KT 9000 BKN037 03/03 Q1018

TAF AMD TAF EGBB
Valido dal 04 a 07 ore il 05 a 06 ore UTC


040744Z 0407/0506 03008KT 9999 SCT035
TEMPO 0407/0412 BKN009
PROB30
TEMPO 0407/0408 7000 SHRA
PROB30
TEMPO 0418/0506 BKN014
ATIS : +44 121 780 0910



MetMap, La meteo Aeronautica in un colpo d'occhio ! - Copyright ORBIFLY Dicembre 2007 - Disclaimer

ORBIFLY MET'MAP TEAM :

Programmazione e sviluppo : Alexandra Zaïnal
Concezione : Baudouin d'Aumeries
Supporto tecnico e logistico : Manuel Goepfert
Aiuto : Marc-Olivier Méhu
Aiuto per la traduzione : Arnaldo La Scala




FONTI E CREDITI :

   NOAA